• Join FlightAware (Why Join?)
  • Login
  • US Flag 
03:59PM EDT


 

Airport Tracker/Info


-or-


 

Live Flight TrackerFlight Track Log ✈ NKS298 ✈ 13-Oct-2013 ✈ KLAS - KIAH

Flight Track Log - Related Links

Times and Time Zones

All times are in EDT time to prevent confusion due to time zone crossing. See the NKS298 flight status page for this flight to view local times or setup timezone preferences in your user account.

Time Position Orientation Groundspeed Altitude Reporting Facility
EDT Latitude Longitude Course Direction KTS MPH feet Rate Location/Type
04:30AM 36.0760 -115.1260 154° Southeast 70 81  Level FlightAware
04:30AM 36.0760 -115.1330 270° West 125 144 4,140 Level FlightAware
04:31AM 36.0770 -115.1550 273° West 169 194 2,500 4,440 Climbing FlightAware
04:31AM 36.0770 -115.1750 270° West 178 205 3,200 1,980 Climbing FlightAware
04:31AM 36.0780 -115.1960 273° West 197 227 3,800 1,740 Climbing FlightAware
04:32AM 36.0780 -115.2250 270° West 233 268 4,500 1,680 Climbing FlightAware
04:32AM 36.0760 -115.2400 261° West 242 278 4,800 1,980 Climbing FlightAware
04:32AM 36.0740 -115.2450 244° Southwest 245 282 5,000 2,760 Climbing FlightAware
04:32AM 36.0690 -115.2560 241° Southwest 248 285 5,400 2,580 Climbing FlightAware
04:32AM 36.0610 -115.2630 215° Southwest 254 292 5,700 2,820 Climbing FlightAware
04:33AM 36.0520 -115.2680 204° Southwest 257 296 6,200 3,480 Climbing FlightAware
04:33AM 36.0290 -115.2760 196° South 257 296 7,400 3,480 Climbing FlightAware
04:33AM 36.0240 -115.2760 180° South 261 300 7,600 2,340 Climbing FlightAware
04:33AM 35.9950 -115.2660 164° South 282 325 8,500 2,340 Climbing FlightAware
04:34AM 35.9850 -115.2570 144° Southeast 291 335 8,900 3,120 Climbing FlightAware
04:34AM 35.9760 -115.2400 123° Southeast 299 344 9,600 3,120 Climbing FlightAware
04:34AM 35.9740 -115.2300 104° East 302 348 9,900 3,600 Climbing FlightAware
04:34AM 35.9730 -115.2160 95° East 301 346 10,500 2,280 Climbing FlightAware
04:35AM 35.9700 -115.1510 93° East 338 389 11,600 1,560 Climbing FlightAware
04:35AM 35.9680 -115.0860 92° East 373 429 12,300 1,860 Climbing FlightAware
04:36AM 35.9660 -115.0110 92° East 384 442 13,700 2,400 Climbing FlightAware
04:36AM 35.9640 -114.9320 92° East 392 451 15,200 2,280 Climbing FlightAware
04:37AM 35.9610 -114.8500 93° East 407 468 16,500 2,160 Climbing FlightAware
04:37AM 35.9580 -114.7640 92° East 416 479 17,800 1,980 Climbing FlightAware
04:38AM 35.9550 -114.6780 92° East 429 494 18,900 1,920 Climbing FlightAware
04:39AM 35.9520 -114.5960 93° East 440 506 20,000 1,920 Climbing FlightAware
04:39AM 35.9480 -114.5080 93° East 448 516 21,100 1,800 Climbing FlightAware
04:40AM 35.9450 -114.4120 92° East 454 522 22,200 1,800 Climbing FlightAware
04:40AM 35.9410 -114.3230 93° East 458 527 23,300 1,680 Climbing FlightAware
04:41AM 35.9380 -114.2390 93° East 462 532 24,100 1,440 Climbing FlightAware
04:42AM 35.9330 -114.1390 94° East 470 541 25,000 1,500 Climbing FlightAware
04:42AM 35.9310 -114.0660 92° East 473 544 25,700 1,500 Climbing FlightAware
04:43AM 35.9260 -113.9700 94° East 478 550 26,600 1,260 Climbing FlightAware
04:43AM 35.9190 -113.8710 95° East 484 557 27,300 1,080 Climbing FlightAware
04:44AM 35.9040 -113.7760 101° East 493 567 27,900 1,200 Climbing FlightAware
04:44AM 35.8890 -113.6870 102° East 496 571 28,700 1,260 Climbing FlightAware
04:45AM 35.8730 -113.5830 101° East 503 579 29,400 1,260 Climbing FlightAware
04:46AM 35.8580 -113.4860 101° East 502 578 30,200 1,800 Climbing FlightAware
04:46AM 35.8430 -113.3910 101° East 491 565 31,500 1,800 Climbing FlightAware
04:47AM 35.8270 -113.2900 101° East 487 560 32,400 1,260 Climbing FlightAware
04:47AM 35.8100 -113.1880 102° East 491 565 33,100 1,080 Climbing FlightAware
04:48AM 35.7960 -113.1000 101° East 493 567 33,700 960 Climbing FlightAware
04:48AM 35.7800 -113.0050 102° East 495 570 34,200 960 Climbing FlightAware
04:49AM 35.7630 -112.9030 102° East 495 570 34,900 1,200 Climbing FlightAware
04:49AM 35.7529 -112.8391 101° East 493 567 35,400 1,200 Climbing FlightAware ADS-B (KPRC)
04:50AM 35.7387 -112.7540 102° East 491 565 36,100 960 Climbing FlightAware ADS-B (KPRC)
04:51AM 35.7160 -112.6180 102° East 489 563 36,700 720 Climbing FlightAware
04:51AM 35.7107 -112.5860 102° East 493 567 36,800 240 Climbing FlightAware ADS-B (KPRC)
04:52AM 35.6840 -112.4260 102° East 503 579 37,000 120 Climbing FlightAware
04:53AM 35.6670 -112.3290 102° East 501 577 37,000  Level FlightAware
04:53AM 35.6490 -112.2240 102° East 504 580 37,000  Level FlightAware
04:54AM 35.6330 -112.1310 102° East 507 583 37,000  Level FlightAware
04:54AM 35.6170 -112.0330 101° East 508 585 37,000  Level FlightAware
04:55AM 35.5990 -111.9310 102° East 507 583 37,000  Level FlightAware
04:55AM 35.5910 -111.8280 95° East 521 600 37,000  Level FlightAware
04:56AM 35.5890 -111.7330 91° East 521 600 37,000  Level FlightAware
04:57AM 35.5860 -111.6280 92° East 521 600 37,000  Level FlightAware
04:57AM 35.5830 -111.5200 92° East 520 598 37,000  Level FlightAware
04:58AM 35.5800 -111.4230 92° East 520 598 37,000 -120 Level FlightAware
04:58AM 35.5760 -111.3170 93° East 522 601 36,900  Descending FlightAware
04:59AM 35.5730 -111.2070 92° East 524 603 37,000 60 Climbing FlightAware
05:00AM 35.5700 -111.1140 92° East 525 604 37,000  Level FlightAware
05:00AM 35.5660 -111.0060 93° East 527 606 37,000  Level FlightAware
05:01AM 35.5630 -110.8990 92° East 526 605 37,000  Level FlightAware
05:01AM 35.5590 -110.7910 93° East 525 604 37,000  Level FlightAware
05:02AM 35.5560 -110.6960 92° East 526 605 37,000  Level FlightAware
05:02AM 35.5510 -110.5820 93° East 526 605 37,000  Level FlightAware
05:03AM 35.5480 -110.4900 92° East 526 605 37,000  Level FlightAware
05:04AM 35.5440 -110.3790 93° East 525 604 37,000  Level FlightAware
05:04AM 35.5400 -110.2740 93° East 522 601 37,000  Level FlightAware
05:05AM 35.5360 -110.1730 93° East 521 600 37,000  Level FlightAware
05:05AM 35.5310 -110.0620 93° East 520 598 37,000 -120 Level FlightAware
05:06AM 35.5270 -109.9720 93° East 521 600 36,900  Descending FlightAware
05:07AM 35.5220 -109.8600 93° East 523 602 37,000 60 Climbing FlightAware
05:07AM 35.5180 -109.7650 93° East 525 604 37,000  Level FlightAware
05:08AM 35.5130 -109.6520 93° East 527 606 37,000  Level FlightAware
05:08AM 35.5090 -109.5450 93° East 528 608 37,000  Level FlightAware
05:09AM 35.5040 -109.4500 94° East 528 608 37,000  Level FlightAware
05:10AM 35.4970 -109.2970 93° East 529 609 37,000  Level FlightAware
05:10AM 35.4910 -109.1670 93° East 527 606 37,000  Level FlightAware
05:11AM 35.4860 -109.0690 94° East 527 606 37,000  Level FlightAware
05:12AM 35.4810 -108.9610 93° East 526 605 37,000  Level FlightAware
05:12AM 35.4770 -108.8700 93° East 526 605 37,000  Level FlightAware
05:13AM 35.4730 -108.7780 93° East 526 605 37,000  Level FlightAware
05:13AM 35.4320 -108.6550 112° Southeast 509 586 37,000  Level FlightAware
05:14AM 35.4150 -108.5640 103° East 509 586 37,000  Level FlightAware
05:15AM 35.3900 -108.4470 105° East 509 586 37,000  Level FlightAware
05:15AM 35.3740 -108.3580 102° East 509 586 37,000  Level FlightAware
05:16AM 35.3580 -108.2770 104° East 509 586 37,000  Level FlightAware
05:16AM 35.3270 -108.1410 106° East 506 582 37,000 -120 Level FlightAware
05:17AM 35.2990 -108.0050 104° East 506 582 36,900 -120 Descending FlightAware
05:18AM 35.2810 -107.9200 105° East 506 582 36,900  Level FlightAware
05:19AM 35.2640 -107.8350 104° East 506 582 36,900 120 Level FlightAware
05:19AM 35.2310 -107.6830 105° East 518 596 37,100 120 Climbing FlightAware
05:20AM 35.2110 -107.5910 105° East 515 593 37,100 -120 Level FlightAware
05:20AM 35.1890 -107.4870 104° East 514 592 37,000 -120 Descending FlightAware
05:21AM 35.1735 -107.4147 105° East 516 594 37,000  Level FlightAware ADS-B (KANK)
05:21AM 35.1556 -107.3315 105° East 518 596 37,000  Level FlightAware ADS-B (KANK)
05:22AM 35.1314 -107.2199 105° East 520 598 37,000  Level FlightAware ADS-B (KANK)
05:22AM 35.1126 -107.1330 105° East 522 601 37,000  Level FlightAware ADS-B (KANK)
05:23AM 35.0948 -107.0512 105° East 521 600 37,000  Level FlightAware ADS-B (KANK)
05:23AM 35.0757 -106.9630 105° East 520 598 37,000  Level FlightAware ADS-B (KANK)
05:24AM 35.0540 -106.8824 108° East 512 589 37,000  Level FlightAware ADS-B (KANK)
05:24AM 35.0248 -106.8025 114° Southeast 502 578 37,000  Level FlightAware ADS-B (KANK)
05:25AM 34.9932 -106.7337 119° Southeast 494 568 37,000  Level FlightAware ADS-B (KANK)
05:25AM 34.9530 -106.6621 124° Southeast 488 562 37,000  Level FlightAware ADS-B (KANK)
05:26AM 34.9120 -106.5925 126° Southeast 490 564 37,000  Level FlightAware ADS-B (KANK)
05:26AM 34.8728 -106.5256 126° Southeast 493 567 37,000  Level FlightAware ADS-B (KANK)
05:27AM 34.8317 -106.4561 126° Southeast 494 568 37,000  Level FlightAware ADS-B (KANK)
05:27AM 34.7915 -106.3880 126° Southeast 496 571 37,000  Level FlightAware ADS-B (KANK)
05:28AM 34.7504 -106.3188 126° Southeast 499 574 37,000  Level FlightAware ADS-B (KANK)
05:29AM 34.7050 -106.2420 126° Southeast 500 575 37,000  Level FlightAware
05:29AM 34.6630 -106.1720 126° Southeast 502 578 37,000  Level FlightAware
05:30AM 34.6200 -106.0990 126° Southeast 502 578 37,000 60 Level FlightAware
05:30AM 34.5740 -106.0220 126° Southeast 502 578 37,100  Climbing FlightAware
05:31AM 34.5270 -105.9440 126° Southeast 502 578 37,000 -120 Descending FlightAware
05:31AM 34.4790 -105.8640 126° Southeast 505 581 37,000  Level FlightAware
05:32AM 34.4320 -105.7870 126° Southeast 505 581 37,000  Level FlightAware
05:32AM 34.3820 -105.7020 125° Southeast 503 579 37,000  Level FlightAware
05:33AM 34.3350 -105.6190 124° Southeast 512 589 37,000  Level FlightAware
05:34AM 34.2880 -105.5300 123° Southeast 511 588 37,000  Level FlightAware
05:34AM 34.2500 -105.4590 123° Southeast 509 586 37,000  Level FlightAware
05:35AM 34.1990 -105.3650 123° Southeast 508 585 37,000  Level FlightAware
05:35AM 34.1520 -105.2770 123° Southeast 508 585 37,000  Level FlightAware
05:36AM 34.1140 -105.2070 123° Southeast 509 586 37,000  Level FlightAware
05:37AM 34.0660 -105.1180 123° Southeast 509 586 37,000  Level FlightAware
05:37AM 34.0200 -105.0330 123° Southeast 509 586 37,000  Level FlightAware
05:38AM 33.9760 -104.9530 124° Southeast 510 587 37,000  Level FlightAware
05:38AM 33.9310 -104.8700 123° Southeast 510 587 37,000  Level FlightAware
05:39AM 33.8840 -104.7840 123° Southeast 509 586 37,000  Level FlightAware
05:39AM 33.8370 -104.6980 123° Southeast 507 583 37,000  Level FlightAware
05:40AM 33.7870 -104.6070 123° Southeast 506 582 37,000  Level FlightAware
05:41AM 33.7400 -104.5210 123° Southeast 505 581 37,000  Level FlightAware
05:41AM 33.6960 -104.4410 123° Southeast 503 579 37,000  Level FlightAware
05:42AM 33.6530 -104.3630 124° Southeast 505 581 37,000  Level FlightAware
05:42AM 33.6050 -104.2770 124° Southeast 505 581 37,000  Level FlightAware
05:43AM 33.5610 -104.1960 123° Southeast 505 581 37,000  Level FlightAware
05:44AM 33.5190 -104.1210 124° Southeast 503 579 37,000  Level FlightAware
05:44AM 33.4730 -104.0390 124° Southeast 502 578 37,000  Level FlightAware
05:45AM 33.4260 -103.9550 124° Southeast 501 577 37,000  Level FlightAware
05:45AM 33.3790 -103.8710 124° Southeast 500 575 37,000  Level FlightAware
05:46AM 33.3400 -103.8010 124° Southeast 499 574 37,000  Level FlightAware
05:47AM 33.2890 -103.7160 126° Southeast 494 568 37,000  Level FlightAware
05:47AM 33.2390 -103.6410 129° Southeast 493 567 37,000  Level FlightAware
05:48AM 33.1900 -103.5660 128° Southeast 496 571 37,000  Level FlightAware
05:48AM 33.1390 -103.4870 128° Southeast 499 574 37,000  Level FlightAware
05:49AM 33.0880 -103.4100 128° Southeast 500 575 37,000  Level FlightAware
05:49AM 33.0420 -103.3390 128° Southeast 501 577 37,000 60 Level FlightAware
05:50AM 32.9900 -103.2600 128° Southeast 498 573 37,100  Climbing FlightAware
05:51AM 32.9410 -103.1840 128° Southeast 498 573 37,000 -120 Descending FlightAware
05:51AM 32.8940 -103.1130 128° Southeast 498 573 37,000  Level FlightAware
05:52AM 32.8430 -103.0360 128° Southeast 497 572 37,000  Level FlightAware
05:52AM 32.7950 -102.9630 128° Southeast 497 572 37,000  Level FlightAware
05:53AM 32.7410 -102.8810 128° Southeast 497 572 37,000  Level FlightAware
05:54AM 32.6920 -102.8070 128° Southeast 499 574 37,000  Level FlightAware
05:54AM 32.6450 -102.7360 128° Southeast 499 574 37,000  Level FlightAware
05:55AM 32.5940 -102.6590 128° Southeast 499 574 37,000  Level FlightAware
05:55AM 32.5430 -102.5820 128° Southeast 499 574 37,000  Level FlightAware
05:56AM 32.4910 -102.5050 129° Southeast 501 577 37,000  Level FlightAware
05:56AM 32.4440 -102.4340 128° Southeast 501 577 37,000  Level FlightAware
05:57AM 32.3930 -102.3580 128° Southeast 501 577 37,000  Level FlightAware
05:58AM 32.3450 -102.2870 129° Southeast 501 577 37,000  Level FlightAware
05:58AM 32.2920 -102.2070 128° Southeast 500 575 37,000  Level FlightAware
05:59AM 32.2460 -102.1390 129° Southeast 499 574 37,000  Level FlightAware
05:59AM 32.1910 -102.0570 128° Southeast 499 574 37,000  Level FlightAware
06:00AM 32.1380 -101.9800 129° Southeast 498 573 37,000  Level FlightAware
06:01AM 32.0880 -101.9050 128° Southeast 496 571 37,000  Level FlightAware
06:01AM 32.0410 -101.8370 129° Southeast 495 570 37,000  Level FlightAware
06:02AM 31.9930 -101.7660 129° Southeast 495 570 37,000  Level FlightAware
06:02AM 31.9410 -101.6890 129° Southeast 495 570 37,000  Level FlightAware
06:03AM 31.8910 -101.6150 129° Southeast 493 567 37,000  Level FlightAware
06:04AM 31.8380 -101.5380 129° Southeast 492 566 37,000  Level FlightAware
06:04AM 31.7930 -101.4720 129° Southeast 492 566 37,000  Level FlightAware
06:05AM 31.7410 -101.3980 130° Southeast 492 566 37,000  Level FlightAware
06:05AM 31.6900 -101.3240 129° Southeast 490 564 37,000  Level FlightAware
06:06AM 31.6390 -101.2500 129° Southeast 492 566 37,000  Level FlightAware
06:06AM 31.5930 -101.1830 129° Southeast 492 566 37,000  Level FlightAware
06:07AM 31.5410 -101.1080 129° Southeast 491 565 37,000  Level FlightAware
06:08AM 31.4920 -101.0370 129° Southeast 492 566 37,000  Level FlightAware
06:08AM 31.4400 -100.9630 129° Southeast 491 565 37,000  Level FlightAware
06:09AM 31.3880 -100.8880 129° Southeast 491 565 37,000  Level FlightAware
06:09AM 31.3400 -100.8190 129° Southeast 491 565 37,000  Level FlightAware
06:10AM 31.2850 -100.7400 129° Southeast 493 567 37,000  Level FlightAware
06:10AM 31.2390 -100.6740 129° Southeast 493 567 37,000  Level FlightAware
06:11AM 31.1910 -100.6050 129° Southeast 493 567 37,000  Level FlightAware
06:12AM 31.1410 -100.5350 130° Southeast 492 566 37,000  Level FlightAware
06:12AM 31.0880 -100.4600 130° Southeast 492 566 37,000  Level FlightAware
06:13AM 31.0400 -100.3920 129° Southeast 491 565 37,000  Level FlightAware
06:13AM 30.9880 -100.3180 129° Southeast 490 564 37,000  Level FlightAware
06:14AM 30.9330 -100.2470 132° Southeast 483 556 37,000  Level FlightAware
06:15AM 30.8790 -100.1850 135° Southeast 484 557 37,000  Level FlightAware
06:15AM 30.8220 -100.1180 135° Southeast 485 558 37,000  Level FlightAware
06:16AM 30.7680 -100.0560 135° Southeast 486 559 37,000  Level FlightAware
06:16AM 30.7090 -99.9860 134° Southeast 485 558 37,000  Level FlightAware
06:17AM 30.6610 -99.9300 135° Southeast 485 558 37,000  Level FlightAware
06:18AM 30.5923 -99.8496 135° Southeast 484 557 37,000  Level FlightAware ADS-B
06:18AM 30.5460 -99.7950 135° Southeast 482 555 37,000  Level FlightAware
06:19AM 30.4950 -99.7370 136° Southeast 481 554 37,000  Level FlightAware
06:19AM 30.4440 -99.6770 135° Southeast 481 554 37,000  Level FlightAware
06:20AM 30.3810 -99.6020 134° Southeast 481 554 37,000  Level FlightAware
06:20AM 30.3260 -99.5360 134° Southeast 483 556 37,000  Level FlightAware
06:21AM 30.2770 -99.4760 133° Southeast 486 559 37,000  Level FlightAware
06:22AM 30.2220 -99.3990 130° Southeast 490 564 37,000  Level FlightAware
06:22AM 30.1790 -99.3300 126° Southeast 493 567 37,000  Level FlightAware
06:23AM 30.1300 -99.2500 125° Southeast 494 568 37,000  Level FlightAware
06:23AM 30.0970 -99.1965 125° Southeast 494 568 37,000  Level FlightAware ADS-B
06:24AM 30.0324 -99.0841 124° Southeast 499 574 37,000  Level FlightAware ADS-B
06:24AM 29.9980 -99.0210 122° Southeast 499 574 37,000  Level FlightAware
06:25AM 29.9642 -98.9580 122° Southeast 501 577 37,000  Level FlightAware ADS-B
06:26AM 29.9140 -98.8660 122° Southeast 503 579 37,000  Level FlightAware
06:26AM 29.8902 -98.8234 123° Southeast 502 578 37,000  Level FlightAware ADS-B
06:26AM 29.8830 -98.8106 123° Southeast 504 580 37,000  Level FlightAware ADS-B
06:27AM 29.8438 -98.7397 123° Southeast 505 581 37,000  Level FlightAware ADS-B
06:27AM 29.8229 -98.7022 123° Southeast 505 581 37,000  Level FlightAware ADS-B
06:27AM 29.7952 -98.6516 122° Southeast 507 583 37,000  Level FlightAware ADS-B
06:27AM 29.7799 -98.6210 120° Southeast 507 583 37,000  Level FlightAware ADS-B
06:28AM 29.7619 -98.5800 117° Southeast 511 588 37,000  Level FlightAware ADS-B
06:28AM 29.7488 -98.5458 114° Southeast 511 588 37,000  Level FlightAware ADS-B
06:28AM 29.7297 -98.4921 112° Southeast 511 588 37,000  Level FlightAware ADS-B
06:28AM 29.7223 -98.4677 109° East 512 589 37,000  Level FlightAware ADS-B
06:28AM 29.7193 -98.4571 108° East 513 590 37,000  Level FlightAware ADS-B
06:29AM 29.7006 -98.3891 108° East 513 590 37,000  Level FlightAware ADS-B
06:29AM 29.6938 -98.3649 108° East 513 590 37,000  Level FlightAware ADS-B
06:29AM 29.6778 -98.3059 107° East 513 590 37,000  Level FlightAware ADS-B
06:30AM 29.6672 -98.2670 107° East 513 590 37,000  Level FlightAware ADS-B
06:30AM 29.6625 -98.2493 107° East 513 590 37,000  Level FlightAware ADS-B
06:30AM 29.6507 -98.1943 104° East 511 588 37,000  Level FlightAware ADS-B
06:30AM 29.6476 -98.1702 98° East 512 589 37,000  Level FlightAware ADS-B
06:30AM 29.6468 -98.1614 96° East 510 587 37,000  Level FlightAware ADS-B
06:31AM 29.6455 -98.1308 93° East 509 586 37,000  Level FlightAware ADS-B
06:31AM 29.6427 -98.0488 92° East 509 586 37,000  Level FlightAware ADS-B
06:31AM 29.6412 -98.0190 93° East 510 587 37,000  Level FlightAware ADS-B
06:32AM 29.6385 -97.9670 93° East 511 588 37,000  Level FlightAware ADS-B
06:32AM 29.6369 -97.9379 94° East 511 588 37,000  Level FlightAware ADS-B
06:32AM 29.6344 -97.8854 93° East 512 589 37,000  Level FlightAware ADS-B
06:32AM 29.6325 -97.8443 93° East 512 589 37,000  Level FlightAware ADS-B
06:33AM 29.6305 -97.8035 93° East 512 589 37,000  Level FlightAware ADS-B
06:33AM 29.6266 -97.7229 93° East 513 590 37,000 -240 Level FlightAware ADS-B
06:33AM 29.6235 -97.6567 93° East 516 594 36,800 -1,020 Descending FlightAware ADS-B
06:34AM 29.6228 -97.6394 93° East 519 597 36,500 -2,880 Descending FlightAware ADS-B
06:34AM 29.6189 -97.5565 93° East 526 605 35,100 -2,760 Descending FlightAware ADS-B
06:34AM 29.6188 -97.5551 95° East 525 604 35,100 -2,340 Level FlightAware ADS-B
06:35AM 29.6146 -97.4714 93° East 520 598 33,900 -2,880 Descending FlightAware ADS-B
06:35AM 29.6117 -97.4138 93° East 521 600 32,700 -3,840 Descending FlightAware ADS-B
06:35AM 29.6104 -97.3868 93° East 530 610 32,000 -3,900 Descending FlightAware ADS-B
06:36AM 29.6071 -97.3167 93° East 536 617 30,500 -3,540 Descending FlightAware ADS-B
06:36AM 29.6065 -97.3011 93° East 536 617 30,200 -3,120 Descending FlightAware ADS-B
06:36AM 29.6025 -97.2168 93° East 536 617 28,700 -3,000 Descending FlightAware ADS-B
06:36AM 29.6024 -97.2157 96° East 533 613 28,700 -2,340 Level FlightAware ADS-B
06:37AM 29.5980 -97.1317 93° East 522 601 27,500 -2,280 Descending FlightAware ADS-B
06:37AM 29.5978 -97.1274 93° East 522 601 27,500 -2,340 Level FlightAware ADS-B
06:37AM 29.5940 -97.0479 93° East 508 585 26,300 -2,400 Descending FlightAware ADS-B
06:37AM 29.5939 -97.0449 92° East 507 583 26,300 -2,400 Level FlightAware ADS-B
06:38AM 29.5898 -96.9678 93° East 495 570 25,100 -2,520 Descending FlightAware ADS-B
06:38AM 29.5895 -96.9624 94° East 494 568 25,000 -2,400 Descending FlightAware ADS-B
06:38AM 29.5855 -96.8910 94° East 481 554 23,900 -2,280 Descending FlightAware ADS-B
06:39AM 29.5816 -96.8142 93° East 468 539 22,800 -2,280 Descending FlightAware ADS-B
06:39AM 29.5777 -96.7396 93° East 456 525 21,600 -2,400 Descending FlightAware ADS-B
06:40AM 29.5738 -96.6679 94° East 448 516 20,400 -2,400 Descending FlightAware ADS-B
06:40AM 29.5721 -96.6376 94° East 446 513 19,900 -2,160 Descending FlightAware ADS-B
06:40AM 29.5700 -96.5962 93° East 440 506 19,300 -2,400 Descending FlightAware ADS-B
06:41AM 29.5661 -96.5267 94° East 433 498 18,000 -2,400 Descending FlightAware ADS-B
06:41AM 29.5623 -96.4584 94° East 424 488 16,900 -2,340 Descending FlightAware ADS-B
06:42AM 29.5585 -96.3905 94° East 417 480 15,700 -2,400 Descending FlightAware ADS-B
06:42AM 29.5548 -96.3246 94° East 410 472 14,500 -2,220 Descending FlightAware ADS-B
06:43AM 29.5514 -96.2594 93° East 399 459 13,500 -1,800 Descending FlightAware ADS-B
06:43AM 29.5509 -96.2358 91° East 390 449 13,300 -1,080 Descending FlightAware ADS-B
06:43AM 29.5519 -96.2118 87° East 387 445 13,100 -960 Descending FlightAware ADS-B
06:43AM 29.5545 -96.1845 84° East 385 443 12,900 -960 Descending FlightAware ADS-B
06:44AM 29.5650 -96.1241 79° East 384 442 12,400 -1,020 Descending FlightAware ADS-B
06:44AM 29.5764 -96.0628 78° East 379 436 11,900 -780 Descending FlightAware ADS-B
06:45AM 29.5856 -96.0132 78° East 376 433 11,700 -600 Descending FlightAware ADS-B
06:45AM 29.5894 -95.9973 75° East 376 433 11,600 -900 Descending FlightAware ADS-B
06:45AM 29.5926 -95.9868 71° East 376 433 11,500 -1,020 Descending FlightAware ADS-B
06:45AM 29.5970 -95.9750 67° East 377 434 11,400 -780 Descending FlightAware ADS-B
06:46AM 29.6180 -95.9278 63° Northeast 370 426 11,100 -720 Descending FlightAware ADS-B
06:46AM 29.6261 -95.9125 59° Northeast 369 425 11,000 -660 Descending FlightAware ADS-B
06:46AM 29.6560 -95.8644 54° Northeast 369 425 10,700 -720 Descending FlightAware ADS-B
06:47AM 29.6862 -95.8156 55° Northeast 364 419 10,300 -780 Descending FlightAware ADS-B
06:47AM 29.7117 -95.7736 55° Northeast 356 410 10,000 -600 Descending FlightAware ADS-B
06:47AM 29.7261 -95.7495 55° Northeast 342 394 9,900 -240 Descending FlightAware ADS-B
06:48AM 29.7394 -95.7276 55° Northeast 321 369 9,900  Level FlightAware ADS-B
06:48AM 29.7526 -95.7059 55° Northeast 302 348 9,900 -660 Level FlightAware ADS-B
06:48AM 29.7691 -95.6787 55° Northeast 292 336 9,500 -1,320 Descending FlightAware ADS-B
06:49AM 29.7813 -95.6584 55° Northeast 290 334 9,100 -1,500 Descending FlightAware ADS-B
06:49AM 29.7939 -95.6378 55° Northeast 288 331 8,700 -1,500 Descending FlightAware ADS-B
06:49AM 29.8086 -95.6136 55° Northeast 287 330 8,200 -1,560 Descending FlightAware ADS-B
06:49AM 29.8206 -95.5937 55° Northeast 288 331 7,800 -1,500 Descending FlightAware ADS-B
06:50AM 29.8498 -95.5455 55° Northeast 287 330 6,900 -1,380 Descending FlightAware ADS-B
06:50AM 29.8626 -95.5243 55° Northeast 282 325 6,500 -1,200 Descending FlightAware ADS-B
06:51AM 29.8721 -95.5086 55° Northeast 278 320 6,300 -900 Descending FlightAware ADS-B
06:51AM 29.8778 -95.4993 55° Northeast 277 319 6,200 -900 Descending FlightAware ADS-B
06:51AM 29.8867 -95.4845 55° Northeast 278 320 6,000 -900 Descending FlightAware ADS-B
06:51AM 29.8876 -95.4832 53° Northeast 277 319 5,900 -420 Descending FlightAware ADS-B
06:51AM 29.8984 -95.4651 55° Northeast 278 320 5,900  Level FlightAware ADS-B
06:51AM 29.9015 -95.4586 61° Northeast 278 320 5,900  Level FlightAware ADS-B
06:51AM 29.9031 -95.4541 68° East 278 320 5,900  Level FlightAware ADS-B
06:51AM 29.9047 -95.4468 76° East 276 318 5,900  Level FlightAware ADS-B
06:51AM 29.9059 -95.4348 83° East 276 318 5,900  Level FlightAware ADS-B
06:52AM 29.9064 -95.4250 87° East 277 319 5,900  Level FlightAware ADS-B
06:52AM 29.9070 -95.4113 87° East 277 319 5,900  Level FlightAware ADS-B
06:52AM 29.9079 -95.3897 87° East 274 315 5,900  Level FlightAware ADS-B
06:52AM 29.9088 -95.3675 87° East 274 315 5,900  Level FlightAware ADS-B
06:53AM 29.9098 -95.3428 87° East 274 315 5,900  Level FlightAware ADS-B
06:53AM 29.9101 -95.3350 87° East 274 315 5,900  Level FlightAware ADS-B
06:53AM 29.9108 -95.3181 87° East 274 315 5,900  Level FlightAware ADS-B
06:53AM 29.9113 -95.3058 87° East 273 314 5,900  Level FlightAware ADS-B
06:53AM 29.9121 -95.2868 87° East 273 314 5,900  Level FlightAware ADS-B
06:53AM 29.9125 -95.2756 88° East 274 315 5,900  Level FlightAware ADS-B
06:53AM 29.9129 -95.2640 88° East 274 315 5,900 -840 Level FlightAware ADS-B
06:54AM 29.9137 -95.2425 87° East 269 310 5,600 -1,740 Descending FlightAware ADS-B
06:54AM 29.9146 -95.2193 87° East 268 308 5,000 -2,220 Descending FlightAware ADS-B
06:54AM 29.9147 -95.2164 89° East 268 308 4,900 -2,400 Descending FlightAware ADS-B
06:54AM 29.9155 -95.1968 87° East 270 311 4,400 -2,400 Descending FlightAware ADS-B
06:54AM 29.9161 -95.1863 87° East 271 312 4,100 -2,640 Descending FlightAware ADS-B
06:54AM 29.9166 -95.1741 87° East 270 311 3,700 -2,040 Descending FlightAware ADS-B
06:55AM 29.9174 -95.1590 86° East 265 305 3,400 -1,620 Descending FlightAware ADS-B
06:55AM 29.9177 -95.1526 87° East 263 303 3,300 -1,080 Descending FlightAware ADS-B
06:55AM 29.9188 -95.1317 87° East 249 287 3,100 -660 Descending FlightAware ADS-B
06:55AM 29.9189 -95.1292 87° East 247 284 3,100 -1,500 Level FlightAware ADS-B
06:55AM 29.9192 -95.1262 84° East 245 282 3,000 -1,200 Descending FlightAware ADS-B
06:55AM 29.9198 -95.1214 82° East 243 280 3,000 -900 Level FlightAware ADS-B
06:55AM 29.9208 -95.1170 75° East 241 277 2,900 -1,200 Descending FlightAware ADS-B
06:55AM 29.9210 -95.1164 66° East 240 276 2,900  Level FlightAware ADS-B
06:55AM 29.9222 -95.1130 68° East 239 275 2,900 -1,200 Level FlightAware ADS-B
06:55AM 29.9244 -95.1087 59° Northeast 237 273 2,800 -720 Descending FlightAware ADS-B
06:55AM 29.9256 -95.1069 53° Northeast 235 270 2,800 -780 Level FlightAware ADS-B
06:55AM 29.9296 -95.1021 46° Northeast 234 269 2,700 -1,740 Descending FlightAware ADS-B
06:56AM 29.9332 -95.0991 36° Northeast 235 270 2,600 -1,020 Descending FlightAware ADS-B
06:56AM 29.9328 -95.0994 207° Southwest 234 269 2,600  Level FlightAware ADS-B
06:56AM 29.9370 -95.0969 27° Northeast 235 270 2,600 -1,200 Level FlightAware ADS-B
06:56AM 29.9407 -95.0955 18° North 236 272 2,500 -1,500 Descending FlightAware ADS-B
06:56AM 29.9439 -95.0947 12° North 236 272 2,400 -1,200 Descending FlightAware ADS-B
06:56AM 29.9510 -95.0939 North 237 273 2,300 -1,200 Descending FlightAware ADS-B
06:56AM 29.9568 -95.0936 North 236 272 2,200 -1,500 Descending FlightAware ADS-B
06:56AM 29.9601 -95.0938 357° North 236 272 2,100 -1,020 Descending FlightAware ADS-B
06:56AM 29.9635 -95.0942 354° North 236 272 2,100 -900 Level FlightAware ADS-B
06:56AM 29.9671 -95.0955 343° North 236 272 2,000 -1,200 Descending FlightAware ADS-B
06:56AM 29.9666 -95.0952 154° Southeast 236 272 2,000  Level FlightAware ADS-B
06:56AM 29.9707 -95.0974 335° Northwest 236 272 2,000 -1,020 Level FlightAware ADS-B
06:56AM 29.9736 -95.0999 323° Northwest 235 270 1,900 -780 Descending FlightAware ADS-B
06:56AM 29.9745 -95.1007 324° Northwest 233 268 1,900  Level FlightAware ADS-B
06:56AM 29.9793 -95.1084 306° West 230 265 1,900  Level FlightAware ADS-B
06:56AM 29.9803 -95.1119 288° West 229 264 1,900  Level FlightAware ADS-B
06:56AM 29.9800 -95.1107 106° East 229 264 1,900  Level FlightAware ADS-B
06:56AM 29.9810 -95.1169 280° West 229 264 1,900  Level FlightAware ADS-B
06:56AM 29.9808 -95.1218 267° West 229 264 1,900  Level FlightAware ADS-B
06:57AM 29.9805 -95.1243 262° West 228 262 1,900  Level FlightAware ADS-B
06:57AM 29.9801 -95.1266 259° West 228 262 1,900  Level FlightAware ADS-B
06:57AM 29.9793 -95.1321 260° West 227 261 1,900 -420 Level FlightAware ADS-B
06:57AM 29.9783 -95.1443 265° West 222 255 1,800  Descending FlightAware ADS-B
06:57AM 29.9782 -95.1476 267° West 216 249 1,900 720 Climbing FlightAware ADS-B
06:57AM 29.9779 -95.1536 267° West 210 242 1,900  Level FlightAware ADS-B
06:57AM 29.9776 -95.1703 269° West 194 223 1,900  Level FlightAware ADS-B
06:57AM 29.9776 -95.1694 92° East 193 222 1,900 -360 Level FlightAware ADS-B
06:57AM 29.9775 -95.1885 270° West 190 219 1,800 -360 Descending FlightAware ADS-B
06:58AM 29.9775 -95.1891 273° West 191 220 1,800 -780 Level FlightAware ADS-B
06:58AM 29.9776 -95.2043 270° West 190 219 1,600 -900 Descending FlightAware ADS-B
06:58AM 29.9777 -95.2110 271° West 188 216 1,500 -1,080 Descending FlightAware ADS-B
06:58AM 29.9776 -95.2215 270° West 184 212 1,300 -1,080 Descending FlightAware ADS-B
06:58AM 29.9776 -95.2350 270° West 171 197 1,100 -1,020 Descending FlightAware ADS-B
06:59AM 29.9775 -95.2484 270° West 159 183 800 -840 Descending FlightAware ADS-B
06:59AM 29.9776 -95.2542 271° West 152 175 800 -600 Level FlightAware ADS-B
06:59AM 29.9776 -95.2561 269° West 151 174 700 -1,140 Descending FlightAware ADS-B
06:59AM 29.9776 -95.2629 270° West 150 173 600 -720 Descending FlightAware ADS-B
06:59AM 29.9776 -95.2707 270° West 147 169 500 -720 Descending FlightAware ADS-B
06:59AM 29.9776 -95.2822 270° West 144 166 300 -780 Descending FlightAware ADS-B
06:59AM 29.9776 -95.2863 270° West 141 162 200 -720 Descending FlightAware ADS-B
07:00AM 29.9776 -95.2955 270° West 139 160 100 -780 Descending FlightAware ADS-B